Time;durP1;ratioP1;P1;durP2;ratioP2;P2;SDS_P1;SDS_P2;PMS_P1;PMS_P2;Temp;Humidity;BMP_temperature;BMP_pressure;BME280_temperature;BME280_humidity;BME280_pressure;Samples;Min_cycle;Max_cycle;Signal;HPM_P1;HPM_P2
2022/05/16 00:02:16;;;;;;;;;;;;;;;15.86;73.09;101202.09;6190460;22;19968;-89
2022/05/16 00:04:43;;;;;;;;;;;;;;;15.76;74.14;101186.09;6228524;23;19911;-90
2022/05/16 00:07:10;;;;;;;;;;;;;;;15.82;73.92;101191.59;6231752;22;20683;-89
2022/05/16 00:09:35;;;;;;;;;;;;;;;15.81;74.07;101194.50;6245751;23;19935;-89
2022/05/16 00:12:07;;;;;;;;;;;;;;;15.70;74.75;101198.47;6215029;23;19988;-88
2022/05/16 00:14:34;;;;;;;;;;;;;;;15.70;74.92;101190.34;6229592;23;20221;-88
2022/05/16 00:17:01;;;;;;;;;;;;;;;15.74;75.08;101193.56;6229243;22;19920;-88
2022/05/16 00:19:29;;;;;;;;;;;;;;;15.77;74.97;101193.19;6233512;23;19912;-88
2022/05/16 00:21:55;;;;;;;;;;;;;;;15.69;75.38;101194.06;6215503;23;19961;-89
2022/05/16 00:24:26;;;;;;;;;;;;;;;15.73;75.25;101197.28;6236220;23;19912;-89
2022/05/16 00:26:55;;;;;;;;;;;;;;;15.73;75.20;101197.28;6187310;23;20362;-91
2022/05/16 00:29:20;;;;;;;;;;;;;;;15.70;75.07;101187.66;6192634;23;19916;-88
2022/05/16 00:31:48;;;;;;;;;;;;;;;15.67;74.91;101196.13;6237744;23;20327;-88
2022/05/16 00:34:15;;;;;;;;;;;;;;;15.61;75.02;101191.41;6239580;23;19924;-88
2022/05/16 00:36:48;;;;;;;;;;;;;;;15.63;75.15;101192.06;6216356;23;19943;-88
2022/05/16 00:39:18;;;;;;;;;;;;;;;15.59;75.29;101190.75;6238290;23;19919;-88
2022/05/16 00:41:46;;;;;;;;;;;;;;;15.49;75.45;101195.56;6239797;23;19965;-89
2022/05/16 00:44:18;;;;;;;;;;;;;;;15.45;75.53;101191.53;6242012;23;20317;-90
2022/05/16 00:46:50;;;;;;;;;;;;;;;15.39;75.75;101183.09;6213990;23;19911;-88
2022/05/16 00:49:22;;;;;;;;;;;;;;;15.48;75.41;101180.34;6214128;22;19912;-88
2022/05/16 00:52:00;;;;;;;;;;;;;;;15.46;75.37;101174.25;6233856;23;19918;-88
2022/05/16 00:54:33;;;;;;;;;;;;;;;15.40;75.42;101189.34;6219547;23;20313;-88
2022/05/16 00:57:01;;;;;;;;;;;;;;;15.35;75.40;101184.47;6189225;22;19942;-88
2022/05/16 00:59:47;;;;;;;;;;;;;;;15.27;75.49;101181.00;6217152;23;19911;-88
2022/05/16 01:05:00;;;;;;;;;;;;;;;15.01;76.93;101181.28;6238167;23;19903;-88
2022/05/16 01:07:31;;;;;;;;;;;;;;;14.98;77.09;101188.78;6240219;22;19952;-91
2022/05/16 01:10:00;;;;;;;;;;;;;;;14.80;77.71;101192.72;6213892;23;19916;-87
2022/05/16 01:12:31;;;;;;;;;;;;;;;14.78;78.07;101198.34;6215822;23;19919;-87
2022/05/16 01:14:58;;;;;;;;;;;;;;;14.57;78.83;101197.06;6251595;23;19914;-88
2022/05/16 01:17:24;;;;;;;;;;;;;;;14.56;78.93;101194.50;6263702;23;19919;-87
2022/05/16 01:19:50;;;;;;;;;;;;;;;14.62;78.51;101187.56;6226194;23;19964;-88
2022/05/16 01:22:30;;;;;;;;;;;;;;;14.57;78.39;101188.94;6198164;23;20268;-89
2022/05/16 01:25:18;;;;;;;;;;;;;;;14.61;78.37;101175.03;6214171;22;19969;-88
2022/05/16 01:28:11;;;;;;;;;;;;;;;14.67;78.21;101180.59;6211663;22;19912;-87
2022/05/16 01:30:46;;;;;;;;;;;;;;;14.61;78.05;101175.03;6237372;23;20340;-86
2022/05/16 01:33:12;;;;;;;;;;;;;;;14.51;78.35;101183.34;6242224;23;19915;-88
2022/05/16 01:35:39;;;;;;;;;;;;;;;14.49;78.60;101172.72;6211815;23;20298;-88
2022/05/16 01:38:27;;;;;;;;;;;;;;;14.47;78.14;101182.00;6214634;22;20255;-89
2022/05/16 01:41:02;;;;;;;;;;;;;;;14.45;78.21;101173.22;6190612;23;20252;-89
2022/05/16 01:43:32;;;;;;;;;;;;;;;14.56;77.71;101170.16;6212557;23;19987;-87
2022/05/16 01:45:59;;;;;;;;;;;;;;;14.52;77.73;101177.75;6215262;23;19912;-88
2022/05/16 01:48:27;;;;;;;;;;;;;;;14.41;77.90;101172.72;6239290;23;19907;-89
2022/05/16 01:50:59;;;;;;;;;;;;;;;14.41;77.81;101177.28;6292175;22;19912;-88
2022/05/16 01:53:46;;;;;;;;;;;;;;;14.35;77.75;101178.81;6221240;22;19934;-88
2022/05/16 01:56:18;;;;;;;;;;;;;;;14.51;76.99;101184.19;6211299;23;20317;-89
2022/05/16 01:58:47;;;;;;;;;;;;;;;14.55;76.42;101182.00;6208344;23;19973;-88
2022/05/16 02:01:20;;;;;;;;;;;;;;;14.54;76.39;101177.63;6207708;23;19970;-87
2022/05/16 02:03:46;;;;;;;;;;;;;;;14.41;76.75;101175.44;6209682;22;19958;-87
2022/05/16 02:06:13;;;;;;;;;;;;;;;14.50;76.47;101178.97;6221436;23;19972;-87
2022/05/16 02:08:38;;;;;;;;;;;;;;;14.52;76.42;101179.63;6227096;23;20257;-87
2022/05/16 02:11:06;;;;;;;;;;;;;;;14.44;76.60;101175.06;6208002;23;19915;-87
2022/05/16 02:13:38;;;;;;;;;;;;;;;14.48;76.05;101181.81;6209963;23;20000;-87
2022/05/16 02:16:08;;;;;;;;;;;;;;;14.30;76.63;101187.44;6212916;23;19942;-87
2022/05/16 02:18:37;;;;;;;;;;;;;;;14.12;77.31;101186.84;6207749;23;19920;-86
2022/05/16 02:26:56;;;;;;;;;;;;;;;14.07;77.33;101200.00;6210314;23;20315;-87
2022/05/16 02:29:26;;;;;;;;;;;;;;;13.99;77.73;101198.16;6216149;23;20311;-87
2022/05/16 02:31:55;;;;;;;;;;;;;;;14.05;77.56;101202.06;6211303;22;19985;-89
2022/05/16 02:34:22;;;;;;;;;;;;;;;13.98;77.83;101191.06;6184511;23;19916;-86
2022/05/16 02:36:50;;;;;;;;;;;;;;;13.98;77.71;101201.88;6206078;23;20385;-87
2022/05/16 02:39:20;;;;;;;;;;;;;;;13.90;78.06;101199.16;6208359;23;19912;-87
2022/05/16 02:41:46;;;;;;;;;;;;;;;13.80;78.35;101193.94;6214198;22;19961;-87
2022/05/16 02:44:14;;;;;;;;;;;;;;;13.78;78.26;101195.97;6206654;23;19992;-87
2022/05/16 02:46:44;;;;;;;;;;;;;;;13.78;78.30;101195.13;6206841;23;19955;-87
2022/05/16 02:49:14;;;;;;;;;;;;;;;13.56;78.93;101188.53;6212882;23;19961;-87
2022/05/16 02:51:41;;;;;;;;;;;;;;;13.62;78.71;101194.09;6226413;23;19969;-88
2022/05/16 02:54:08;;;;;;;;;;;;;;;13.62;78.53;101191.38;6210552;23;19941;-88
2022/05/16 02:56:34;;;;;;;;;;;;;;;13.66;78.74;101200.84;6255480;23;19945;-88
2022/05/16 02:59:02;;;;;;;;;;;;;;;13.50;78.95;101198.13;6212984;22;19915;-88
2022/05/16 03:01:29;;;;;;;;;;;;;;;13.36;79.52;101194.22;6218616;23;19912;-87
2022/05/16 03:03:55;;;;;;;;;;;;;;;13.45;79.20;101200.50;6187702;22;19911;-89
2022/05/16 03:06:23;;;;;;;;;;;;;;;13.38;79.38;101207.59;6219080;23;19914;-89
2022/05/16 03:08:50;;;;;;;;;;;;;;;13.42;79.28;101208.94;6240507;22;19927;-88
2022/05/16 03:11:19;;;;;;;;;;;;;;;13.49;79.06;101204.56;6216037;23;19918;-88
2022/05/16 03:13:45;;;;;;;;;;;;;;;13.58;78.50;101208.97;6211350;23;19919;-88
2022/05/16 03:16:11;;;;;;;;;;;;;;;13.69;78.03;101203.22;6218943;23;19926;-88
2022/05/16 03:18:51;;;;;;;;;;;;;;;13.64;78.03;101199.34;6232330;22;19915;-87
2022/05/16 03:21:19;;;;;;;;;;;;;;;13.62;77.96;101201.34;6214380;23;19911;-88
2022/05/16 03:23:47;;;;;;;;;;;;;;;13.61;78.46;101207.78;6217002;23;19912;-86
2022/05/16 03:26:15;;;;;;;;;;;;;;;13.75;77.75;101215.22;6209354;23;19926;-87
2022/05/16 03:28:42;;;;;;;;;;;;;;;13.94;77.21;101214.88;6200452;22;19920;-88
2022/05/16 03:31:17;;;;;;;;;;;;;;;13.84;77.79;101221.47;6214537;23;19916;-88
2022/05/16 03:33:47;;;;;;;;;;;;;;;13.99;77.75;101214.38;6238752;23;19988;-87
2022/05/16 03:36:14;;;;;;;;;;;;;;;13.98;77.82;101214.53;6242246;23;20293;-90
2022/05/16 03:41:23;;;;;;;;;;;;;;;14.28;76.97;101223.78;6217944;23;19922;-86
2022/05/16 03:43:52;;;;;;;;;;;;;;;14.25;77.24;101229.56;6227752;23;19916;-87
2022/05/16 03:46:19;;;;;;;;;;;;;;;14.39;76.73;101226.16;6217096;23;19911;-88
2022/05/16 03:48:44;;;;;;;;;;;;;;;14.52;76.33;101226.47;6213163;23;19959;-87
2022/05/16 03:51:12;;;;;;;;;;;;;;;14.53;76.15;101233.56;6216713;23;20030;-88
2022/05/16 03:53:51;;;;;;;;;;;;;;;14.67;76.03;101234.72;6213339;23;19964;-88
2022/05/16 03:56:24;;;;;;;;;;;;;;;14.61;76.46;101230.03;6236927;23;20538;-88
2022/05/16 03:58:54;;;;;;;;;;;;;;;14.65;76.64;101238.63;6241980;23;19915;-87
2022/05/16 04:01:20;;;;;;;;;;;;;;;14.81;76.24;101235.88;6187383;22;19967;-88
2022/05/16 04:03:48;;;;;;;;;;;;;;;14.82;76.05;101236.72;6240351;23;19915;-89
2022/05/16 04:06:27;;;;;;;;;;;;;;;14.88;75.87;101236.84;6214196;23;19912;-87
2022/05/16 04:08:59;;;;;;;;;;;;;;;14.81;76.52;101245.88;6237761;22;19916;-91
2022/05/16 04:11:29;;;;;;;;;;;;;;;14.88;76.72;101244.97;6197122;23;20332;-90
2022/05/16 04:14:01;;;;;;;;;;;;;;;14.95;76.43;101242.41;6241028;23;19915;-87
2022/05/16 04:16:28;;;;;;;;;;;;;;;14.99;76.29;101239.19;6240495;23;20002;-89
2022/05/16 04:18:55;;;;;;;;;;;;;;;15.09;76.36;101238.13;6208049;22;19916;-91
2022/05/16 04:21:20;;;;;;;;;;;;;;;15.09;76.54;101240.84;6225656;22;19986;-88
2022/05/16 04:24:07;;;;;;;;;;;;;;;15.12;76.67;101245.91;6238834;23;19980;-89
2022/05/16 04:26:42;;;;;;;;;;;;;;;15.24;76.44;101236.38;6243249;22;19991;-90
2022/05/16 04:29:09;;;;;;;;;;;;;;;15.40;75.87;101233.56;6241034;22;19916;-86
2022/05/16 04:31:38;;;;;;;;;;;;;;;15.92;74.25;101239.31;6214170;22;19937;-89
2022/05/16 04:34:09;;;;;;;;;;;;;;;16.33;72.67;101244.41;6214732;23;19915;-90
2022/05/16 04:36:37;;;;;;;;;;;;;;;16.86;71.51;101248.75;6188137;23;19919;-87
2022/05/16 04:39:03;;;;;;;;;;;;;;;17.21;71.15;101250.88;6224517;22;19916;-85
2022/05/16 04:44:14;;;;;;;;;;;;;;;17.70;67.82;101250.19;6216598;23;20022;-88
2022/05/16 04:46:40;;;;;;;;;;;;;;;18.04;66.45;101245.91;6214830;23;19927;-86
2022/05/16 04:49:07;;;;;;;;;;;;;;;18.20;65.76;101248.38;6249535;23;19912;-89
2022/05/16 04:51:36;;;;;;;;;;;;;;;18.44;64.21;101257.97;6238227;23;19912;-90
2022/05/16 04:54:02;;;;;;;;;;;;;;;18.90;63.26;101256.63;6217654;22;20245;-86
2022/05/16 04:56:27;;;;;;;;;;;;;;;18.97;62.03;101252.03;6210377;23;19915;-88
2022/05/16 04:59:16;;;;;;;;;;;;;;;19.20;61.37;101257.19;6213127;22;19976;-93
2022/05/16 05:01:48;;;;;;;;;;;;;;;19.44;60.47;101257.69;6240750;23;19920;-90
2022/05/16 05:04:16;;;;;;;;;;;;;;;19.80;59.45;101260.09;6187297;23;19916;-86
2022/05/16 05:06:43;;;;;;;;;;;;;;;20.17;58.71;101260.56;6237058;23;19920;-84
2022/05/16 05:09:09;;;;;;;;;;;;;;;20.31;57.74;101259.50;6246532;23;19915;-88
2022/05/16 05:14:32;;;;;;;;;;;;;;;20.90;56.10;101249.53;6241053;23;19922;-85
2022/05/16 05:17:01;;;;;;;;;;;;;;;20.97;55.24;101249.53;6205972;23;19971;-87
2022/05/16 05:19:28;;;;;;;;;;;;;;;21.18;55.19;101260.16;6231779;22;19904;-88
2022/05/16 05:22:06;;;;;;;;;;;;;;;21.45;54.31;101251.88;6252653;23;19911;-86
2022/05/16 05:24:34;;;;;;;;;;;;;;;21.64;53.81;101259.13;6237374;23;20252;-85
2022/05/16 05:27:05;;;;;;;;;;;;;;;21.81;53.57;101253.97;6207015;22;20332;-86
2022/05/16 05:29:40;;;;;;;;;;;;;;;21.94;52.80;101253.06;6218083;23;19939;-88
2022/05/16 05:32:10;;;;;;;;;;;;;;;22.02;52.63;101255.50;6214802;23;20108;-86
2022/05/16 05:34:40;;;;;;;;;;;;;;;22.22;52.19;101254.53;6256033;23;19895;-85
2022/05/16 05:37:08;;;;;;;;;;;;;;;22.42;51.62;101255.19;6233424;23;19968;-88
2022/05/16 05:39:35;;;;;;;;;;;;;;;22.68;50.83;101256.00;6241007;22;19987;-88
2022/05/16 05:42:07;;;;;;;;;;;;;;;22.92;50.56;101255.09;6241338;23;19946;-88
2022/05/16 05:44:37;;;;;;;;;;;;;;;23.27;49.79;101257.25;6238138;23;19919;-91
2022/05/16 05:47:04;;;;;;;;;;;;;;;23.50;49.03;101255.66;6214521;23;19968;-90
2022/05/16 05:49:31;;;;;;;;;;;;;;;23.76;48.38;101257.22;6213480;23;19993;-87
2022/05/16 05:51:59;;;;;;;;;;;;;;;24.05;47.31;101243.69;6214769;22;19995;-86
2022/05/16 05:54:37;;;;;;;;;;;;;;;24.11;47.28;101245.47;6236787;23;19984;-88
2022/05/16 05:57:06;;;;;;;;;;;;;;;24.46;47.27;101236.41;6260937;22;19959;-86
2022/05/16 05:59:44;;;;;;;;;;;;;;;24.83;46.45;101248.00;6187926;22;19934;-87
2022/05/16 06:02:11;;;;;;;;;;;;;;;24.94;45.60;101249.91;6212113;23;19920;-85
2022/05/16 06:04:38;;;;;;;;;;;;;;;24.87;45.92;101254.72;6210645;23;20057;-89
2022/05/16 06:07:06;;;;;;;;;;;;;;;24.96;45.32;101250.50;6236371;22;19935;-85
2022/05/16 06:09:35;;;;;;;;;;;;;;;25.08;45.47;101257.91;6220835;23;19916;-84
2022/05/16 06:12:03;;;;;;;;;;;;;;;25.34;45.15;101248.28;6224597;23;19932;-85
2022/05/16 06:14:31;;;;;;;;;;;;;;;25.57;44.86;101255.59;6206495;23;19912;-86
2022/05/16 06:16:58;;;;;;;;;;;;;;;25.88;44.35;101255.09;6220987;23;19919;-89
2022/05/16 06:19:25;;;;;;;;;;;;;;;26.08;44.55;101254.63;6218332;23;19912;-92
2022/05/16 06:22:05;;;;;;;;;;;;;;;25.80;43.96;101258.22;6204466;23;19923;-89
2022/05/16 06:27:31;;;;;;;;;;;;;;;26.27;43.75;101252.44;6213439;23;19962;-90
2022/05/16 06:29:57;;;;;;;;;;;;;;;26.79;42.83;101250.47;6217404;23;19922;-89
2022/05/16 06:32:22;;;;;;;;;;;;;;;27.12;42.10;101264.13;6212308;23;19923;-89
2022/05/16 06:34:48;;;;;;;;;;;;;;;27.53;41.06;101258.28;6223681;23;19912;-89
2022/05/16 06:37:18;;;;;;;;;;;;;;;27.61;40.75;101259.75;6232116;23;19912;-90
2022/05/16 06:39:43;;;;;;;;;;;;;;;27.57;40.55;101264.97;6231236;23;19916;-89
2022/05/16 06:42:08;;;;;;;;;;;;;;;27.93;40.04;101246.84;6190593;23;19957;-91
2022/05/16 06:44:34;;;;;;;;;;;;;;;28.16;39.62;101247.56;6221094;23;19930;-90
2022/05/16 06:46:59;;;;;;;;;;;;;;;28.12;40.04;101244.50;6219255;23;19919;-89
2022/05/16 06:49:27;;;;;;;;;;;;;;;28.25;39.76;101254.28;6201562;23;19934;-91
2022/05/16 06:51:52;;;;;;;;;;;;;;;28.08;39.81;101253.59;6228499;23;19934;-90
2022/05/16 06:54:18;;;;;;;;;;;;;;;28.46;39.49;101252.50;6201177;23;19939;-90
2022/05/16 06:56:43;;;;;;;;;;;;;;;28.69;38.75;101256.00;6226639;23;19912;-91
2022/05/16 06:59:08;;;;;;;;;;;;;;;29.41;37.82;101259.94;6233273;22;19942;-91
2022/05/16 07:01:34;;;;;;;;;;;;;;;29.88;36.90;101258.94;6236900;22;19920;-91
2022/05/16 07:04:01;;;;;;;;;;;;;;;29.57;37.04;101258.00;6236973;22;19979;-93
2022/05/16 07:06:27;;;;;;;;;;;;;;;29.55;37.25;101255.53;6236343;22;19904;-90
2022/05/16 07:08:53;;;;;;;;;;;;;;;29.92;36.79;101257.25;6212092;23;19946;-90
2022/05/16 07:11:18;;;;;;;;;;;;;;;29.91;36.49;101258.38;6237115;22;20026;-88
2022/05/16 07:13:44;;;;;;;;;;;;;;;29.50;37.02;101263.81;6236971;22;19944;-91
2022/05/16 07:16:12;;;;;;;;;;;;;;;29.32;37.80;101262.38;6237257;22;19971;-92
2022/05/16 07:18:37;;;;;;;;;;;;;;;29.05;38.40;101259.75;6234071;22;19916;-89
2022/05/16 07:21:04;;;;;;;;;;;;;;;29.31;38.03;101259.88;6212235;22;19904;-91
2022/05/16 07:23:32;;;;;;;;;;;;;;;29.34;37.97;101265.72;6212468;23;19904;-92
2022/05/16 07:28:44;;;;;;;;;;;;;;;28.97;38.57;101261.09;6232408;23;19919;-90
2022/05/16 07:31:12;;;;;;;;;;;;;;;28.78;38.92;101257.97;6211232;23;19914;-91
2022/05/16 07:33:37;;;;;;;;;;;;;;;29.05;38.58;101256.97;6237574;22;19912;-91
2022/05/16 07:36:03;;;;;;;;;;;;;;;29.13;38.77;101259.28;6211882;22;19916;-89
2022/05/16 07:38:29;;;;;;;;;;;;;;;29.45;37.92;101266.56;6237365;22;19907;-90
2022/05/16 07:40:55;;;;;;;;;;;;;;;29.98;37.30;101266.41;6233751;23;19922;-90
2022/05/16 07:43:20;;;;;;;;;;;;;;;30.22;36.62;101264.72;6212518;23;19991;-90
2022/05/16 07:45:46;;;;;;;;;;;;;;;30.58;36.33;101258.31;6212598;23;19939;-90
2022/05/16 07:48:12;;;;;;;;;;;;;;;30.97;35.88;101254.91;6213483;23;20328;-91
2022/05/16 07:50:38;;;;;;;;;;;;;;;30.66;35.62;101255.00;6212733;23;19988;-91
2022/05/16 07:53:05;;;;;;;;;;;;;;;30.79;35.49;101262.72;6187300;23;19912;-91
2022/05/16 07:55:33;;;;;;;;;;;;;;;31.04;35.23;101258.22;6211900;23;19911;-93
2022/05/16 07:57:58;;;;;;;;;;;;;;;31.12;35.02;101254.88;6184879;23;19916;-90
2022/05/16 08:00:24;;;;;;;;;;;;;;;30.65;34.84;101253.34;6213910;23;19983;-92
2022/05/16 08:02:50;;;;;;;;;;;;;;;31.24;34.15;101255.34;6186219;23;19912;-90
2022/05/16 08:05:15;;;;;;;;;;;;;;;31.93;32.67;101249.94;6217446;22;19912;-91
2022/05/16 08:10:30;;;;;;;;;;;;;;;32.62;31.28;101252.69;6223029;23;19976;-92
2022/05/16 08:12:56;;;;;;;;;;;;;;;33.25;30.42;101254.44;6240234;23;19904;-92
2022/05/16 08:15:25;;;;;;;;;;;;;;;33.95;28.71;101256.47;6220160;22;19912;-90
2022/05/16 08:17:51;;;;;;;;;;;;;;;33.51;28.43;101255.75;6219283;22;20357;-93
2022/05/16 08:20:17;;;;;;;;;;;;;;;33.59;28.78;101262.63;6223801;23;19908;-92
2022/05/16 08:22:42;;;;;;;;;;;;;;;33.80;28.72;101260.34;6236040;23;19911;-90
2022/05/16 08:25:17;;;;;;;;;;;;;;;33.96;27.71;101255.34;6192534;23;20009;-92
2022/05/16 08:27:44;;;;;;;;;;;;;;;33.52;29.38;101259.34;6231054;23;19911;-91
2022/05/16 08:30:10;;;;;;;;;;;;;;;33.52;30.07;101262.97;6216722;23;19912;-91
2022/05/16 08:32:38;;;;;;;;;;;;;;;33.76;30.02;101259.28;6216278;23;20324;-91
2022/05/16 08:35:05;;;;;;;;;;;;;;;33.84;29.98;101267.81;6245741;23;19969;-91
2022/05/16 08:40:15;;;;;;;;;;;;;;;32.76;31.21;101262.00;6242217;23;19964;-90
2022/05/16 08:42:56;;;;;;;;;;;;;;;32.88;31.09;101261.56;6245026;23;19912;-91
2022/05/16 08:45:22;;;;;;;;;;;;;;;33.03;30.74;101260.53;6194647;23;19912;-90
2022/05/16 08:48:17;;;;;;;;;;;;;;;33.31;30.22;101267.16;6201652;23;19911;-91
2022/05/16 08:50:42;;;;;;;;;;;;;;;33.11;30.30;101263.53;6235180;22;19916;-93
2022/05/16 08:53:16;;;;;;;;;;;;;;;33.54;30.22;101262.66;6250219;23;20393;-92
2022/05/16 08:55:46;;;;;;;;;;;;;;;33.35;30.15;101260.69;6226981;23;19923;-94
2022/05/16 08:58:16;;;;;;;;;;;;;;;33.52;30.32;101259.34;6191190;22;19941;-91
2022/05/16 09:00:48;;;;;;;;;;;;;;;33.98;29.05;101259.50;6263018;23;20121;-90
2022/05/16 09:03:15;;;;;;;;;;;;;;;34.21;29.24;101256.91;6221177;23;19912;-91
2022/05/16 09:05:44;;;;;;;;;;;;;;;34.58;28.40;101253.16;6216967;23;19911;-91
2022/05/16 09:08:10;;;;;;;;;;;;;;;35.10;27.23;101255.75;6192889;22;19912;-91
2022/05/16 09:10:52;;;;;;;;;;;;;;;35.83;26.68;101258.59;6194915;23;19912;-91
2022/05/16 09:13:23;;;;;;;;;;;;;;;35.89;26.42;101246.97;6214440;22;19937;-92
2022/05/16 09:15:49;;;;;;;;;;;;;;;34.33;28.54;101250.84;6255528;22;19915;-90
2022/05/16 09:18:33;;;;;;;;;;;;;;;34.15;28.33;101250.56;6228878;22;20247;-91
2022/05/16 09:21:18;;;;;;;;;;;;;;;34.41;27.70;101247.31;6221002;22;19919;-93
2022/05/16 09:23:46;;;;;;;;;;;;;;;33.79;28.38;101244.75;6264052;22;19915;-91
2022/05/16 09:26:11;;;;;;;;;;;;;;;34.04;27.51;101249.06;6218111;22;19928;-91
2022/05/16 09:28:39;;;;;;;;;;;;;;;33.90;26.85;101248.19;6216536;22;19916;-91
2022/05/16 09:31:09;;;;;;;;;;;;;;;34.46;26.19;101252.81;6243874;23;19951;-91
2022/05/16 09:33:34;;;;;;;;;;;;;;;33.72;26.40;101245.13;6189293;23;19919;-91
2022/05/16 09:36:04;;;;;;;;;;;;;;;33.34;26.14;101245.13;6215539;23;20230;-91
2022/05/16 09:38:29;;;;;;;;;;;;;;;31.42;27.60;101248.34;6217991;23;19919;-90
2022/05/16 09:41:01;;;;;;;;;;;;;;;32.69;26.20;101247.59;6243239;23;19919;-92
2022/05/16 09:43:46;;;;;;;;;;;;;;;33.89;24.52;101240.97;6193498;23;20266;-93
2022/05/16 09:46:18;;;;;;;;;;;;;;;34.26;23.88;101240.06;6232629;23;19912;-91
2022/05/16 09:48:43;;;;;;;;;;;;;;;35.59;21.68;101248.53;6243133;22;19969;-92
2022/05/16 09:51:09;;;;;;;;;;;;;;;36.61;20.99;101233.91;6218458;22;19912;-92
2022/05/16 09:53:43;;;;;;;;;;;;;;;37.88;19.98;101233.94;6220412;23;19912;-92
2022/05/16 09:56:24;;;;;;;;;;;;;;;38.73;19.13;101230.41;6227050;22;19938;-91
2022/05/16 09:58:54;;;;;;;;;;;;;;;39.06;18.82;101235.38;6196983;22;19969;-91
2022/05/16 10:01:40;;;;;;;;;;;;;;;39.60;18.54;101220.59;6249080;23;19964;-92
2022/05/16 10:04:15;;;;;;;;;;;;;;;40.24;18.05;101217.28;6230385;23;20414;-95
2022/05/16 10:07:09;;;;;;;;;;;;;;;39.04;18.38;101215.22;6168609;22;19923;31
2022/05/16 10:10:00;;;;;;;;;;;;;;;37.55;20.28;101206.41;6195094;22;20617;31
2022/05/16 10:12:26;;;;;;;;;;;;;;;37.22;21.27;101213.66;6215953;22;19987;-92
2022/05/16 10:17:38;;;;;;;;;;;;;;;34.88;24.42;101211.78;6225821;22;19945;-96
2022/05/16 10:20:14;;;;;;;;;;;;;;;36.50;23.06;101212.91;6204476;23;19916;-96
2022/05/16 10:22:50;;;;;;;;;;;;;;;34.00;23.83;101211.78;6178989;23;19909;-92
2022/05/16 10:25:37;;;;;;;;;;;;;;;33.16;26.66;101207.75;6199326;22;19919;-94
2022/05/16 10:28:10;;;;;;;;;;;;;;;33.10;27.14;101208.13;6190949;23;19908;-96
2022/05/16 10:39:13;;;;;;;;;;;;;;;29.05;35.59;101205.22;6216306;22;19927;-96
2022/05/16 10:41:42;;;;;;;;;;;;;;;28.47;40.50;101207.19;6167055;23;19923;-96
2022/05/16 10:44:23;;;;;;;;;;;;;;;26.86;40.75;101204.22;6196826;23;19943;-95
2022/05/16 10:46:56;;;;;;;;;;;;;;;26.59;39.44;101198.63;6173718;23;19913;-95
2022/05/16 10:49:21;;;;;;;;;;;;;;;26.09;39.99;101194.81;6203971;23;19927;-94
2022/05/16 10:52:22;;;;;;;;;;;;;;;25.68;42.39;101188.59;6176047;23;19915;-96
2022/05/16 10:57:32;;;;;;;;;;;;;;;25.85;40.70;101172.94;6176811;22;19936;-96
2022/05/16 11:00:15;;;;;;;;;;;;;;;26.50;39.87;101167.84;6202794;22;19946;-96
2022/05/16 11:40:53;;;;;;;;;;;;;;;25.49;42.07;101197.06;6253141;22;19926;-93
2022/05/16 11:43:25;;;;;;;;;;;;;;;25.39;41.29;101190.56;6226603;22;20060;-91
2022/05/16 11:46:26;;;;;;;;;;;;;;;25.26;41.42;101180.69;6246815;23;19904;-96
2022/05/16 11:49:02;;;;;;;;;;;;;;;25.33;44.37;101166.78;6217104;23;20298;-93
2022/05/16 11:51:43;;;;;;;;;;;;;;;25.17;42.52;101171.97;6228268;22;19919;-94
2022/05/16 11:54:16;;;;;;;;;;;;;;;25.04;43.14;101173.09;6255026;23;19912;-94
2022/05/16 12:02:41;;;;;;;;;;;;;;;23.75;41.02;101181.44;6242314;22;19921;-93
2022/05/16 12:05:28;;;;;;;;;;;;;;;23.34;41.03;101183.06;6241003;22;19927;-91
2022/05/16 12:08:17;;;;;;;;;;;;;;;23.05;45.57;101173.78;6221528;23;19923;-92
2022/05/16 12:10:57;;;;;;;;;;;;;;;22.63;48.82;101157.19;6230209;23;19911;-94
2022/05/16 12:13:28;;;;;;;;;;;;;;;21.55;49.53;101161.97;6233730;22;19912;-91
2022/05/16 12:16:12;;;;;;;;;;;;;;;21.27;55.46;101176.84;6267627;22;19916;-89
2022/05/16 12:18:40;;;;;;;;;;;;;;;20.93;55.83;101182.69;6251666;22;20336;-86
2022/05/16 12:21:08;;;;;;;;;;;;;;;20.64;56.24;101187.63;6218551;23;20233;-85
2022/05/16 12:23:49;;;;;;;;;;;;;;;20.21;58.67;101185.38;6226565;23;19912;-88
2022/05/16 12:26:44;;;;;;;;;;;;;;;19.98;63.90;101197.56;6230895;22;19908;-87
2022/05/16 12:29:09;;;;;;;;;;;;;;;19.80;69.55;101191.88;6192076;22;19943;-87
2022/05/16 12:31:56;;;;;;;;;;;;;;;19.68;66.64;101199.00;6217352;23;19918;-88
2022/05/16 12:34:50;;;;;;;;;;;;;;;19.47;69.83;101198.09;6217124;22;19986;-92
2022/05/16 12:40:39;;;;;;;;;;;;;;;18.79;66.61;101183.63;6248022;23;19923;-92
2022/05/16 12:46:22;;;;;;;;;;;;;;;18.40;73.38;101196.78;6248701;23;19919;-93
2022/05/16 12:49:08;;;;;;;;;;;;;;;18.18;72.05;101182.41;6193833;23;19916;-90
2022/05/16 12:51:40;;;;;;;;;;;;;;;18.17;69.34;101180.72;6244837;23;19982;-89
2022/05/16 12:54:38;;;;;;;;;;;;;;;18.04;66.98;101181.47;6191527;23;19907;-90
2022/05/16 12:57:26;;;;;;;;;;;;;;;17.92;69.68;101178.44;6216589;23;19918;-90
2022/05/16 13:00:00;;;;;;;;;;;;;;;17.47;71.30;101185.13;6216937;22;19941;-90
2022/05/16 13:05:34;;;;;;;;;;;;;;;17.82;70.97;101168.94;6244966;23;19919;-90
2022/05/16 13:14:10;;;;;;;;;;;;;;;18.73;71.11;101160.72;6244978;23;19980;-89
2022/05/16 13:16:59;;;;;;;;;;;;;;;19.05;72.03;101150.19;6205631;22;19944;-88
2022/05/16 13:19:31;;;;;;;;;;;;;;;19.19;67.47;101147.28;6226414;22;19912;-88
2022/05/16 13:22:03;;;;;;;;;;;;;;;19.45;69.39;101133.94;6219360;22;19924;-89
2022/05/16 13:24:37;;;;;;;;;;;;;;;19.68;70.62;101139.84;6220861;22;19995;-88
2022/05/16 13:29:49;;;;;;;;;;;;;;;19.98;68.03;101147.63;6222818;23;20070;-90
2022/05/16 13:32:29;;;;;;;;;;;;;;;20.02;68.70;101146.16;6218867;23;19935;-88
2022/05/16 13:35:24;;;;;;;;;;;;;;;20.19;68.19;101146.53;6246504;23;19919;-89
2022/05/16 13:38:06;;;;;;;;;;;;;;;20.21;70.18;101156.19;6218186;22;19915;-89
2022/05/16 13:40:34;;;;;;;;;;;;;;;20.46;70.84;101152.75;6212275;23;19920;-87
2022/05/16 13:43:32;;;;;;;;;;;;;;;20.53;72.53;101148.13;6186738;23;19916;-88
2022/05/16 13:46:28;;;;;;;;;;;;;;;20.47;68.76;101143.53;6221983;23;19923;-87
2022/05/16 13:49:26;;;;;;;;;;;;;;;20.59;68.35;101141.00;6214475;23;19912;-89
2022/05/16 13:52:21;;;;;;;;;;;;;;;20.63;68.28;101134.91;6211793;23;20003;-89
2022/05/16 14:04:33;;;;;;;;;;;;;;;19.67;62.38;101123.69;6214880;23;19923;-90
2022/05/16 14:07:35;;;;;;;;;;;;;;;19.59;62.36;101113.78;6212917;23;19957;-88
2022/05/16 14:10:09;;;;;;;;;;;;;;;19.43;63.60;101103.28;6123481;23;19937;-90
2022/05/16 14:12:39;;;;;;;;;;;;;;;19.31;63.34;101090.28;6196878;23;19916;-89
2022/05/16 14:15:08;;;;;;;;;;;;;;;19.10;63.60;101082.28;6215317;23;20337;-86
2022/05/16 14:17:37;;;;;;;;;;;;;;;19.22;64.67;101063.44;6222549;23;20419;-88
2022/05/16 14:20:11;;;;;;;;;;;;;;;19.09;61.68;101047.94;6188934;23;19920;-88
2022/05/16 14:22:39;;;;;;;;;;;;;;;19.05;62.14;101047.47;6187428;23;19908;-88
2022/05/16 14:25:07;;;;;;;;;;;;;;;18.93;64.11;101038.25;6211459;23;19912;-91
2022/05/16 14:27:34;;;;;;;;;;;;;;;18.96;63.99;101048.72;6198591;23;19908;-85
2022/05/16 14:30:00;;;;;;;;;;;;;;;18.92;64.43;101067.38;6213658;23;19908;-87
2022/05/16 14:32:31;;;;;;;;;;;;;;;18.76;63.75;101073.19;6209273;23;19911;-87
2022/05/16 14:35:01;;;;;;;;;;;;;;;18.73;62.05;101082.59;6211477;23;20012;-86
2022/05/16 14:37:28;;;;;;;;;;;;;;;18.74;63.38;101097.06;6209533;23;19912;-88
2022/05/16 14:40:01;;;;;;;;;;;;;;;18.74;64.36;101099.78;6209550;23;20333;-88
2022/05/16 14:42:30;;;;;;;;;;;;;;;18.73;62.35;101114.41;6244941;23;20397;-87
2022/05/16 14:45:06;;;;;;;;;;;;;;;18.71;62.70;101133.72;6190483;22;20311;-87
2022/05/16 14:47:44;;;;;;;;;;;;;;;18.74;61.77;101143.34;6213798;22;19922;-86
2022/05/16 14:50:14;;;;;;;;;;;;;;;18.73;60.35;101139.81;6191644;23;19918;-86
2022/05/16 14:52:41;;;;;;;;;;;;;;;18.80;62.37;101142.59;6188360;23;20241;-90